Terminal Aerodrome Forecast
Issued by NWS Omaha/Valley, NE

Home | Current Version | Previous Version | Text Only | Print | Product List | Glossary On
Versions: 1 2 3 4 5 6 7 8 9 10 11 12 13 14 15 16 17 18 19 20 21 22 23 24 25 26 27 28 29 30 31 32 33 34 35 36 37 38 39
000
FTUS43 KOAX 170520
TAFOMA
TAF
KOMA 170520Z 1706/1806 16007KT P6SM BKN045
     FM171000 15005KT P6SM SCT040
      TEMPO 1710/1714 3SM BR BKN020
     FM171500 VRB03KT P6SM SCT025
     FM172000 08007KT P6SM BKN035
     FM180100 09006KT P6SM SCT030 BKN250=

USA.gov is the U.S. government's official web portal to all federal, state and local government web resources and services.